Time;durP1;ratioP1;P1;durP2;ratioP2;P2;SDS_P1;SDS_P2;PMS_P1;PMS_P2;Temp;Humidity;BMP_temperature;BMP_pressure;BME280_temperature;BME280_humidity;BME280_pressure;Samples;Min_cycle;Max_cycle;Signal;HPM_P1;HPM_P2
2022/03/28 00:00:10;;;;;;;22.10;15.60;;;11.30;99.90;;;;;;5032286;28;20217;-79
2022/03/28 00:02:41;;;;;;;25.95;16.48;;;11.20;99.90;;;;;;5050050;28;20214;-79
2022/03/28 00:05:09;;;;;;;22.35;14.95;;;11.10;99.90;;;;;;5049791;28;20205;-79
2022/03/28 00:07:37;;;;;;;24.48;16.25;;;11.10;99.90;;;;;;5047150;28;20210;-79
2022/03/28 00:10:08;;;;;;;25.30;15.77;;;11.10;99.90;;;;;;5048763;28;20202;-79
2022/03/28 00:12:37;;;;;;;22.60;14.47;;;11.10;99.90;;;;;;5032179;28;20233;-79
2022/03/28 00:15:05;;;;;;;22.97;14.93;;;11.10;99.90;;;;;;5031057;28;20652;-77
2022/03/28 00:17:33;;;;;;;22.63;15.33;;;11.00;99.90;;;;;;5045446;28;20194;-79
2022/03/28 00:20:02;;;;;;;22.07;15.50;;;10.90;99.90;;;;;;5032048;28;20565;-79
2022/03/28 00:22:30;;;;;;;22.70;16.27;;;10.90;99.90;;;;;;5030752;28;20222;-78
2022/03/28 00:24:57;;;;;;;25.10;15.95;;;10.80;99.90;;;;;;5048800;28;20203;-79
2022/03/28 00:27:25;;;;;;;25.00;16.60;;;10.80;99.90;;;;;;5033187;28;20209;-79
2022/03/28 00:29:52;;;;;;;22.45;15.73;;;10.90;99.90;;;;;;5028595;28;20206;-79
2022/03/28 00:32:20;;;;;;;23.10;16.02;;;10.90;99.90;;;;;;5042899;28;20229;-79
2022/03/28 00:34:47;;;;;;;21.73;14.77;;;10.90;99.90;;;;;;5049944;28;20549;-79
2022/03/28 00:37:16;;;;;;;23.03;15.73;;;10.60;99.90;;;;;;5029057;28;20202;-79
2022/03/28 00:39:46;;;;;;;23.80;14.77;;;10.70;99.90;;;;;;5029776;28;20202;-79
2022/03/28 00:42:13;;;;;;;24.97;15.87;;;10.80;99.90;;;;;;5053024;28;20211;-79
2022/03/28 00:44:40;;;;;;;21.17;15.57;;;10.90;99.90;;;;;;5051329;28;20191;-79
2022/03/28 00:47:08;;;;;;;25.23;16.70;;;10.90;99.90;;;;;;5050456;28;20202;-79
2022/03/28 00:49:50;;;;;;;23.83;16.00;;;10.80;99.90;;;;;;5033660;28;20206;-78
2022/03/28 00:52:20;;;;;;;23.27;15.67;;;10.80;99.90;;;;;;5031359;28;20234;-79
2022/03/28 00:54:48;;;;;;;22.97;15.63;;;10.60;99.90;;;;;;5052016;28;20201;-79
2022/03/28 00:57:15;;;;;;;21.00;15.23;;;10.50;99.90;;;;;;5052075;28;20198;-79
2022/03/28 00:59:43;;;;;;;24.63;16.47;;;10.50;99.90;;;;;;5055538;28;20205;-79
2022/03/28 01:02:10;;;;;;;25.20;16.50;;;10.50;99.90;;;;;;5052222;28;20210;-79
2022/03/28 01:04:38;;;;;;;24.23;16.03;;;10.50;99.90;;;;;;5053294;28;20210;-79
2022/03/28 01:07:07;;;;;;;22.77;16.17;;;10.40;99.90;;;;;;5048046;28;20206;-80
2022/03/28 01:09:36;;;;;;;23.17;15.60;;;10.50;99.90;;;;;;5048051;28;20205;-79
2022/03/28 01:12:05;;;;;;;25.70;16.17;;;10.50;99.90;;;;;;5034762;28;20218;-79
2022/03/28 01:14:34;;;;;;;21.40;14.83;;;10.40;99.90;;;;;;5049514;28;20660;-79
2022/03/28 01:19:52;;;;;;;27.20;15.43;;;10.30;99.90;;;;;;5047457;28;20186;-80
2022/03/28 01:22:21;;;;;;;25.43;16.43;;;10.10;99.90;;;;;;5051853;28;20218;-79
2022/03/28 01:24:48;;;;;;;27.27;16.33;;;10.10;99.90;;;;;;5032811;28;20194;-79
2022/03/28 01:27:16;;;;;;;23.73;15.97;;;10.00;99.90;;;;;;5048227;28;20198;-79
2022/03/28 01:29:44;;;;;;;26.23;15.73;;;10.00;99.90;;;;;;5051201;28;20209;-79
2022/03/28 01:32:12;;;;;;;22.10;14.80;;;10.00;99.90;;;;;;5051125;28;20603;-80
2022/03/28 01:34:39;;;;;;;23.00;15.40;;;10.00;99.90;;;;;;5046240;28;20545;-80
2022/03/28 01:37:07;;;;;;;25.33;17.40;;;10.00;99.90;;;;;;5032767;28;20202;-79
2022/03/28 01:39:38;;;;;;;28.20;16.97;;;10.00;99.90;;;;;;5034499;28;20199;-79
2022/03/28 01:42:06;;;;;;;23.40;15.90;;;9.90;99.90;;;;;;5027232;28;20691;-79
2022/03/28 01:44:34;;;;;;;25.57;15.83;;;9.90;99.90;;;;;;5031648;28;20190;-79
2022/03/28 01:47:01;;;;;;;27.60;16.93;;;9.90;99.90;;;;;;5032199;28;20198;-80
2022/03/28 01:49:29;;;;;;;22.90;15.33;;;9.90;99.90;;;;;;5046768;28;20675;-79
2022/03/28 01:51:56;;;;;;;26.43;16.50;;;9.90;99.90;;;;;;5034748;28;20236;-79
2022/03/28 01:54:24;;;;;;;29.23;17.50;;;9.90;99.90;;;;;;5050240;28;20983;-79
2022/03/28 01:56:52;;;;;;;25.03;17.00;;;9.90;99.90;;;;;;5031315;28;20209;-79
2022/03/28 01:59:20;;;;;;;26.93;16.63;;;9.90;99.90;;;;;;5048905;28;20203;-79
2022/03/28 02:01:47;;;;;;;25.80;16.37;;;9.90;99.90;;;;;;5050857;28;20583;-79
2022/03/28 02:04:15;;;;;;;25.13;16.30;;;10.00;99.90;;;;;;5028549;28;20194;-78
2022/03/28 02:06:43;;;;;;;28.60;17.80;;;10.00;99.90;;;;;;5048267;28;20198;-80
2022/03/28 02:09:10;;;;;;;24.17;17.47;;;10.00;99.90;;;;;;5028385;28;20206;-80
2022/03/28 02:11:38;;;;;;;27.53;17.47;;;10.00;99.90;;;;;;5051815;28;20219;-79
2022/03/28 02:14:09;;;;;;;26.20;17.13;;;10.00;99.90;;;;;;5047812;28;20584;-79
2022/03/28 02:16:37;;;;;;;27.83;18.03;;;10.00;99.90;;;;;;5052318;28;20198;-80
2022/03/28 02:19:04;;;;;;;29.27;18.43;;;10.00;99.90;;;;;;5031560;28;20652;-80
2022/03/28 02:21:32;;;;;;;27.30;18.27;;;9.90;99.90;;;;;;5030613;28;20226;-79
2022/03/28 02:23:59;;;;;;;25.17;16.63;;;10.00;99.90;;;;;;5031032;28;20213;-79
2022/03/28 02:26:27;;;;;;;27.40;17.97;;;10.00;99.90;;;;;;5036961;28;20210;-79
2022/03/28 02:28:54;;;;;;;25.60;16.60;;;10.10;99.90;;;;;;5051878;28;20691;-80
2022/03/28 02:31:24;;;;;;;28.30;17.00;;;10.10;99.90;;;;;;5053638;28;20631;-80
2022/03/28 02:33:51;;;;;;;24.63;16.97;;;10.00;99.90;;;;;;5053961;28;20217;-80
2022/03/28 02:36:19;;;;;;;28.70;18.40;;;10.10;99.90;;;;;;5031367;28;20195;-80
2022/03/28 02:38:46;;;;;;;27.60;17.47;;;10.10;99.90;;;;;;5029731;28;20207;-80
2022/03/28 02:41:14;;;;;;;26.60;17.60;;;10.10;99.90;;;;;;5049529;28;20218;-80
2022/03/28 02:43:41;;;;;;;29.03;17.93;;;10.10;99.90;;;;;;5051818;28;20198;-79
2022/03/28 02:46:09;;;;;;;26.83;18.30;;;10.00;99.90;;;;;;5038517;28;20205;-80
2022/03/28 02:48:38;;;;;;;27.47;17.27;;;9.80;99.90;;;;;;5034328;28;20214;-80
2022/03/28 02:51:05;;;;;;;24.90;16.00;;;9.70;99.90;;;;;;5032882;28;20256;-79
2022/03/28 02:53:32;;;;;;;25.43;16.73;;;9.60;99.90;;;;;;5052432;28;20199;-80
2022/03/28 02:56:00;;;;;;;27.23;17.67;;;9.60;99.90;;;;;;5035035;28;20696;-79
2022/03/28 02:58:28;;;;;;;27.13;17.27;;;9.50;99.90;;;;;;5031721;28;20198;-79
2022/03/28 03:00:56;;;;;;;31.70;17.47;;;9.50;99.90;;;;;;5051401;28;20193;-79
2022/03/28 03:03:31;;;;;;;27.57;16.63;;;9.30;99.90;;;;;;5050243;28;20202;-79
2022/03/28 03:06:00;;;;;;;26.10;15.77;;;9.30;99.90;;;;;;5033276;28;20567;-79
2022/03/28 03:08:27;;;;;;;26.73;16.70;;;9.30;99.90;;;;;;5045749;28;20195;-79
2022/03/28 03:10:55;;;;;;;26.87;17.43;;;9.40;99.90;;;;;;5027971;28;20198;-79
2022/03/28 03:13:25;;;;;;;27.13;16.90;;;9.30;99.90;;;;;;5050762;28;20214;-79
2022/03/28 03:15:53;;;;;;;27.03;16.00;;;9.30;99.90;;;;;;5047672;28;20201;-81
2022/03/28 03:18:20;;;;;;;28.43;17.67;;;9.20;99.90;;;;;;5031863;28;20571;-79
2022/03/28 03:20:48;;;;;;;28.97;17.70;;;9.20;99.90;;;;;;5035933;28;20198;-79
2022/03/28 03:23:25;;;;;;;32.67;17.57;;;9.20;99.90;;;;;;5034706;28;20221;-79
2022/03/28 03:25:54;;;;;;;29.30;17.73;;;9.20;99.90;;;;;;5031941;28;20190;-78
2022/03/28 03:28:22;;;;;;;26.73;17.13;;;9.20;99.90;;;;;;5029439;28;20199;-78
2022/03/28 03:30:49;;;;;;;28.90;17.97;;;9.10;99.90;;;;;;5047978;28;20205;-78
2022/03/28 03:33:17;;;;;;;27.93;18.03;;;9.10;99.90;;;;;;5033055;28;20202;-78
2022/03/28 03:35:44;;;;;;;29.00;18.07;;;9.10;99.90;;;;;;5049887;28;20201;-78
2022/03/28 03:38:11;;;;;;;26.50;17.60;;;8.80;99.90;;;;;;5045897;28;20209;-78
2022/03/28 03:40:40;;;;;;;29.97;18.50;;;8.60;99.90;;;;;;5047697;28;20202;-78
2022/03/28 03:43:11;;;;;;;28.93;17.30;;;8.30;99.90;;;;;;5047760;28;20244;-78
2022/03/28 03:45:38;;;;;;;30.90;18.10;;;8.30;99.90;;;;;;5047019;28;20675;-78
2022/03/28 03:48:06;;;;;;;30.30;19.07;;;8.40;99.90;;;;;;5030741;28;20210;-80
2022/03/28 03:50:34;;;;;;;33.23;18.83;;;8.30;99.90;;;;;;5047993;28;20201;-79
2022/03/28 03:53:01;;;;;;;32.67;19.30;;;8.40;99.90;;;;;;5048308;28;20240;-78
2022/03/28 03:55:28;;;;;;;27.93;17.93;;;8.60;99.90;;;;;;5032074;28;20217;-78
2022/03/28 03:57:57;;;;;;;29.73;18.33;;;8.70;99.90;;;;;;5047834;28;20198;-79
2022/03/28 04:00:25;;;;;;;28.93;18.37;;;8.70;99.90;;;;;;5030529;28;20269;-76
2022/03/28 04:02:52;;;;;;;32.57;19.23;;;8.70;99.90;;;;;;5047690;28;20293;-77
2022/03/28 04:05:20;;;;;;;28.20;17.83;;;8.80;99.90;;;;;;5027299;28;20213;-76
2022/03/28 04:07:47;;;;;;;28.07;17.83;;;8.90;99.90;;;;;;5045737;28;20206;-76
2022/03/28 04:10:15;;;;;;;28.83;18.73;;;8.80;99.90;;;;;;5044769;28;20202;-76
2022/03/28 04:12:42;;;;;;;31.70;17.93;;;8.80;99.90;;;;;;5031326;28;20592;-76
2022/03/28 04:15:11;;;;;;;29.27;19.10;;;8.80;99.90;;;;;;5045309;28;20573;-76
2022/03/28 04:17:43;;;;;;;29.47;17.93;;;8.90;99.90;;;;;;5026180;28;20209;-76
2022/03/28 04:20:12;;;;;;;31.87;18.37;;;8.90;99.90;;;;;;5028940;28;20198;-76
2022/03/28 04:22:40;;;;;;;31.00;19.63;;;8.70;99.90;;;;;;5046949;28;20595;-76
2022/03/28 04:25:09;;;;;;;30.27;19.00;;;8.50;99.90;;;;;;5047635;28;20198;-76
2022/03/28 04:27:37;;;;;;;32.00;18.90;;;8.20;99.90;;;;;;5027820;28;20543;-76
2022/03/28 04:30:06;;;;;;;32.53;19.93;;;8.30;99.90;;;;;;5048506;28;20210;-77
2022/03/28 04:32:37;;;;;;;31.83;19.07;;;8.40;99.90;;;;;;5049124;28;20211;-76
2022/03/28 04:35:06;;;;;;;30.13;18.70;;;8.30;99.90;;;;;;5050070;28;20700;-76
2022/03/28 04:37:34;;;;;;;31.60;18.20;;;8.40;99.90;;;;;;5031371;28;20206;-76
2022/03/28 04:40:05;;;;;;;30.57;17.60;;;8.40;99.90;;;;;;5034641;28;20206;-76
2022/03/28 04:42:32;;;;;;;31.27;17.63;;;8.50;99.90;;;;;;5049983;28;20210;-76
2022/03/28 04:45:00;;;;;;;31.73;18.87;;;8.50;99.90;;;;;;5035055;28;20209;-76
2022/03/28 04:47:27;;;;;;;29.27;18.50;;;8.30;99.90;;;;;;5047961;28;20198;-77
2022/03/28 04:49:56;;;;;;;32.43;18.27;;;8.30;99.90;;;;;;5032279;28;20194;-76
2022/03/28 04:52:23;;;;;;;28.27;17.83;;;8.30;99.90;;;;;;5050114;28;20222;-76
2022/03/28 04:54:50;;;;;;;29.30;18.00;;;8.40;99.90;;;;;;5049785;28;20241;-76
2022/03/28 04:57:18;;;;;;;31.27;17.87;;;8.40;99.90;;;;;;5033403;28;20285;-76
2022/03/28 04:59:45;;;;;;;33.70;18.60;;;8.50;99.90;;;;;;5047751;28;20671;-76
2022/03/28 05:02:13;;;;;;;30.87;18.57;;;8.50;99.90;;;;;;5049058;28;20221;-76
2022/03/28 05:04:41;;;;;;;29.57;19.40;;;8.50;99.90;;;;;;5034970;28;20202;-76
2022/03/28 05:07:10;;;;;;;28.60;18.23;;;8.40;99.90;;;;;;5049598;28;20202;-79
2022/03/28 05:09:37;;;;;;;30.33;19.53;;;8.30;99.90;;;;;;5049375;28;20206;-76
2022/03/28 05:12:05;;;;;;;31.00;17.83;;;8.20;99.90;;;;;;5045637;28;20229;-76
2022/03/28 05:14:33;;;;;;;34.63;18.67;;;8.30;99.90;;;;;;5050163;28;20706;-76
2022/03/28 05:17:00;;;;;;;30.20;17.83;;;8.40;99.90;;;;;;5049322;28;20202;-77
2022/03/28 05:19:27;;;;;;;31.07;19.20;;;8.30;99.90;;;;;;5047567;28;20206;-76
2022/03/28 05:21:55;;;;;;;32.57;20.10;;;8.00;99.90;;;;;;5049352;28;20225;-76
2022/03/28 05:24:23;;;;;;;32.10;19.17;;;7.90;99.90;;;;;;5047633;28;20190;-77
2022/03/28 05:26:51;;;;;;;30.00;19.87;;;7.80;99.90;;;;;;5048791;28;20222;-76
2022/03/28 05:29:22;;;;;;;34.70;19.77;;;7.80;99.90;;;;;;5047995;28;20190;-76
2022/03/28 05:31:49;;;;;;;28.17;17.97;;;7.80;99.90;;;;;;5033743;28;20586;-76
2022/03/28 05:34:19;;;;;;;34.33;19.50;;;8.00;99.90;;;;;;5048616;28;20197;-77
2022/03/28 05:36:47;;;;;;;31.50;18.30;;;8.10;99.90;;;;;;5048606;28;20214;-76
2022/03/28 05:39:14;;;;;;;32.60;18.20;;;8.10;99.90;;;;;;5045119;28;20675;-76
2022/03/28 05:41:43;;;;;;;30.67;19.50;;;8.20;99.90;;;;;;5033408;28;20710;-76
2022/03/28 05:44:11;;;;;;;35.63;19.50;;;8.10;99.90;;;;;;5040718;28;20210;-77
2022/03/28 05:46:38;;;;;;;30.73;18.37;;;8.00;99.90;;;;;;5048934;28;20187;-76
2022/03/28 05:49:06;;;;;;;28.77;17.97;;;8.00;99.90;;;;;;5050204;28;20195;-76
2022/03/28 05:51:33;;;;;;;30.07;17.50;;;8.20;99.90;;;;;;5030328;28;20525;-77
2022/03/28 05:54:01;;;;;;;34.03;19.50;;;8.30;99.90;;;;;;5050384;28;20198;-76
2022/03/28 05:56:28;;;;;;;33.23;19.17;;;8.20;99.90;;;;;;5048382;28;20218;-76
2022/03/28 05:58:57;;;;;;;34.87;20.00;;;8.20;99.90;;;;;;5049267;28;20201;-76
2022/03/28 06:01:25;;;;;;;34.73;19.73;;;8.00;99.90;;;;;;5045099;28;20236;-78
2022/03/28 06:03:52;;;;;;;32.00;19.13;;;8.00;99.90;;;;;;5044394;28;20210;-75
2022/03/28 06:06:19;;;;;;;32.77;20.17;;;8.20;99.90;;;;;;5045391;28;20693;-78
2022/03/28 06:08:47;;;;;;;32.03;20.70;;;8.00;99.90;;;;;;5028196;28;20206;-75
2022/03/28 06:11:14;;;;;;;35.30;21.13;;;7.80;99.90;;;;;;5043465;28;20226;-76
2022/03/28 06:13:43;;;;;;;31.67;18.13;;;8.10;99.90;;;;;;5026731;28;20249;-76
2022/03/28 06:16:12;;;;;;;33.33;18.60;;;8.30;99.90;;;;;;5048635;28;20225;-77
2022/03/28 06:18:39;;;;;;;39.97;22.03;;;8.40;99.90;;;;;;5044050;28;20213;-76
2022/03/28 06:21:07;;;;;;;36.10;20.07;;;8.60;99.90;;;;;;5031876;28;20210;-76
2022/03/28 06:23:35;;;;;;;32.63;19.50;;;8.70;99.90;;;;;;5048816;28;20190;-76
2022/03/28 06:26:03;;;;;;;36.03;20.97;;;8.70;99.90;;;;;;5044981;28;20549;-76
2022/03/28 06:28:30;;;;;;;37.27;21.30;;;8.80;99.90;;;;;;5043773;28;20203;-76
2022/03/28 06:30:58;;;;;;;33.57;21.50;;;8.90;99.90;;;;;;5031515;28;20684;-76
2022/03/28 06:33:27;;;;;;;36.40;22.37;;;8.80;99.90;;;;;;5029166;28;20565;-78
2022/03/28 06:35:56;;;;;;;41.07;24.13;;;8.50;99.90;;;;;;5043192;28;20573;-76
2022/03/28 06:38:23;;;;;;;39.00;22.73;;;8.40;99.90;;;;;;5028623;28;20198;-77
2022/03/28 06:40:51;;;;;;;40.47;24.50;;;8.60;99.90;;;;;;5041955;28;20199;-75
2022/03/28 06:43:18;;;;;;;34.97;22.67;;;8.80;99.90;;;;;;5032424;28;20668;-76
2022/03/28 06:45:46;;;;;;;37.40;22.33;;;9.10;99.90;;;;;;5029398;28;20194;-77
2022/03/28 06:48:13;;;;;;;39.70;22.00;;;9.30;99.90;;;;;;5043978;28;20558;-76
2022/03/28 06:50:42;;;;;;;37.60;22.90;;;9.60;99.90;;;;;;5048461;28;20202;-76
2022/03/28 06:53:10;;;;;;;35.77;22.47;;;9.60;99.90;;;;;;5047578;28;20611;-76
2022/03/28 06:55:37;;;;;;;37.30;22.30;;;9.60;99.90;;;;;;5048662;28;20225;-76
2022/03/28 06:58:04;;;;;;;40.87;25.27;;;9.70;99.90;;;;;;5050207;28;20210;-75
2022/03/28 07:00:32;;;;;;;40.20;25.83;;;9.90;99.90;;;;;;5032984;28;20209;-75
2022/03/28 07:03:00;;;;;;;40.00;24.90;;;9.90;99.90;;;;;;5049493;28;20225;-76
2022/03/28 07:05:30;;;;;;;40.13;25.53;;;10.10;99.90;;;;;;5031527;28;20206;-79
2022/03/28 07:07:59;;;;;;;37.60;23.27;;;10.20;99.90;;;;;;5028382;28;20199;-77
2022/03/28 07:10:27;;;;;;;36.20;23.40;;;10.50;99.90;;;;;;5029226;28;20202;-77
2022/03/28 07:12:55;;;;;;;42.60;25.23;;;10.70;99.90;;;;;;5033709;28;20219;-77
2022/03/28 07:15:22;;;;;;;39.23;25.13;;;10.70;99.90;;;;;;5032865;28;20248;-79
2022/03/28 07:17:54;;;;;;;39.17;25.63;;;10.90;99.90;;;;;;5034222;28;20199;-79
2022/03/28 07:20:22;;;;;;;43.40;25.87;;;10.90;99.90;;;;;;5035207;28;20194;-77
2022/03/28 07:22:50;;;;;;;44.63;26.45;;;11.00;99.90;;;;;;5049556;28;20222;-77
2022/03/28 07:25:19;;;;;;;46.33;25.93;;;10.90;99.90;;;;;;5037279;28;20194;-77
2022/03/28 07:27:47;;;;;;;41.73;26.50;;;11.00;99.90;;;;;;5047924;28;20210;-77
2022/03/28 07:30:15;;;;;;;42.50;26.03;;;11.10;99.90;;;;;;5051964;28;20197;-77
2022/03/28 07:32:43;;;;;;;44.23;26.10;;;11.30;99.90;;;;;;5045451;28;20676;-77
2022/03/28 07:35:12;;;;;;;46.65;26.33;;;11.30;99.90;;;;;;5043551;28;20675;-77
2022/03/28 07:37:40;;;;;;;41.15;26.02;;;11.30;99.90;;;;;;5040735;28;20217;-77
2022/03/28 07:40:09;;;;;;;41.13;26.30;;;11.40;99.90;;;;;;5025495;28;20210;-77
2022/03/28 07:42:40;;;;;;;44.00;26.42;;;11.40;99.90;;;;;;5026747;28;20218;-77
2022/03/28 07:45:09;;;;;;;42.30;26.02;;;11.60;99.90;;;;;;5032658;28;20205;-77
2022/03/28 07:47:37;;;;;;;42.20;27.02;;;11.70;99.90;;;;;;5030927;28;20194;-77
2022/03/28 07:50:06;;;;;;;44.22;26.10;;;11.80;99.90;;;;;;5047428;28;20205;-77
2022/03/28 07:52:34;;;;;;;40.72;26.02;;;11.90;99.90;;;;;;5038197;28;20256;-77
2022/03/28 07:55:01;;;;;;;42.17;25.33;;;12.00;99.90;;;;;;5028977;28;20209;-77
2022/03/28 07:57:30;;;;;;;41.45;25.67;;;12.10;99.90;;;;;;5048733;28;20217;-77
2022/03/28 07:59:59;;;;;;;38.97;25.38;;;12.20;99.90;;;;;;5033704;28;20190;-77
2022/03/28 08:02:26;;;;;;;39.70;25.38;;;12.30;99.90;;;;;;5021147;28;20687;-76
2022/03/28 08:04:53;;;;;;;47.17;29.73;;;12.30;99.90;;;;;;5055362;28;20209;-77
2022/03/28 08:07:21;;;;;;;42.25;27.23;;;12.50;99.90;;;;;;5038052;28;20194;-77
2022/03/28 08:09:49;;;;;;;40.28;25.90;;;12.50;99.90;;;;;;5054878;28;20544;-77
2022/03/28 08:12:44;;;;;;;44.80;28.38;;;12.60;99.90;;;;;;5038383;28;20688;-77
2022/03/28 08:15:16;;;;;;;41.83;25.90;;;12.90;99.90;;;;;;5044014;28;20248;-77
2022/03/28 08:17:43;;;;;;;44.65;28.77;;;13.10;99.90;;;;;;5053969;28;20229;-77
2022/03/28 08:20:13;;;;;;;36.70;24.60;;;13.10;99.90;;;;;;5038282;28;20202;-77
2022/03/28 08:22:44;;;;;;;48.45;27.63;;;13.10;99.90;;;;;;5054578;28;20214;-77
2022/03/28 08:25:13;;;;;;;41.35;27.38;;;13.10;99.90;;;;;;5038084;28;20194;-77
2022/03/28 08:27:41;;;;;;;42.22;27.60;;;13.10;99.90;;;;;;5037413;28;20197;-77
2022/03/28 08:30:09;;;;;;;39.33;25.83;;;13.10;99.90;;;;;;5044924;28;20206;-77
2022/03/28 08:32:38;;;;;;;45.03;28.17;;;13.20;99.90;;;;;;5037870;28;20210;-77
2022/03/28 08:35:07;;;;;;;38.45;26.00;;;13.30;99.90;;;;;;5054391;28;20248;-77
2022/03/28 08:37:35;;;;;;;44.10;26.10;;;13.40;99.90;;;;;;5054143;28;20225;-77
2022/03/28 08:40:02;;;;;;;41.70;27.58;;;13.30;99.90;;;;;;5055003;28;20203;-77
2022/03/28 08:42:29;;;;;;;43.10;26.80;;;13.40;99.90;;;;;;5057141;28;20222;-77
2022/03/28 08:44:57;;;;;;;40.50;26.90;;;13.50;99.90;;;;;;5054041;28;20206;-77
2022/03/28 08:47:25;;;;;;;41.42;27.30;;;13.70;99.90;;;;;;5031109;28;20214;-76
2022/03/28 08:49:55;;;;;;;36.10;24.75;;;13.60;99.90;;;;;;5054061;28;20198;-77
2022/03/28 08:52:24;;;;;;;40.05;24.70;;;13.50;99.90;;;;;;5036950;28;20241;-77
2022/03/28 08:54:52;;;;;;;38.45;25.95;;;13.70;99.90;;;;;;5037592;28;20198;-77
2022/03/28 08:57:19;;;;;;;42.30;27.02;;;13.80;99.90;;;;;;5053327;28;20219;-76
2022/03/28 08:59:53;;;;;;;38.53;25.48;;;13.80;99.90;;;;;;5051515;28;20206;-77
2022/03/28 09:02:33;;;;;;;36.00;25.10;;;14.00;99.90;;;;;;5053690;28;20218;-77
2022/03/28 09:05:02;;;;;;;37.35;26.52;;;14.10;99.90;;;;;;5052794;28;20198;-77
2022/03/28 09:07:30;;;;;;;32.90;24.17;;;14.20;99.90;;;;;;5051123;28;20198;-77
2022/03/28 09:09:58;;;;;;;26.65;18.75;;;14.10;99.90;;;;;;5052204;28;20229;-78
2022/03/28 09:12:26;;;;;;;35.25;22.83;;;14.70;99.90;;;;;;5053987;28;20214;-77
2022/03/28 09:14:58;;;;;;;24.98;18.65;;;15.30;99.70;;;;;;5052804;28;20277;-77
2022/03/28 09:17:26;;;;;;;33.05;22.73;;;15.50;99.10;;;;;;5052312;28;20210;-77
2022/03/28 09:19:55;;;;;;;29.85;22.15;;;15.50;98.50;;;;;;5036712;28;20664;-77
2022/03/28 09:22:26;;;;;;;38.63;23.60;;;15.70;98.40;;;;;;5054065;28;20210;-77
2022/03/28 09:24:57;;;;;;;28.63;20.80;;;15.70;98.40;;;;;;5035639;28;20205;-77
2022/03/28 09:27:27;;;;;;;31.77;23.55;;;15.90;97.70;;;;;;5049696;28;20206;-77
2022/03/28 09:30:05;;;;;;;27.20;18.73;;;16.00;97.60;;;;;;5053384;28;20205;-77
2022/03/28 09:32:34;;;;;;;28.65;19.67;;;16.20;97.30;;;;;;5035617;28;20221;-77
2022/03/28 09:35:04;;;;;;;36.70;24.52;;;16.30;96.90;;;;;;5046516;28;20191;-77
2022/03/28 09:37:55;;;;;;;30.02;21.33;;;16.20;96.90;;;;;;5051694;28;20210;-77
2022/03/28 09:40:31;;;;;;;29.23;23.05;;;16.10;97.30;;;;;;5036121;28;20202;-77
2022/03/28 09:43:00;;;;;;;27.83;21.25;;;16.40;96.80;;;;;;5033881;28;20222;-77
2022/03/28 09:45:30;;;;;;;33.78;24.02;;;16.40;96.70;;;;;;5052352;28;20599;-77
2022/03/28 09:48:01;;;;;;;30.50;22.88;;;16.10;96.80;;;;;;5044952;28;20195;-77
2022/03/28 09:50:31;;;;;;;30.88;22.13;;;16.10;97.20;;;;;;5052200;28;20194;-77
2022/03/28 09:53:13;;;;;;;32.20;24.38;;;16.60;96.60;;;;;;5048282;28;20229;-77
2022/03/28 09:55:49;;;;;;;32.53;22.48;;;16.60;96.90;;;;;;5022524;28;20203;-78
2022/03/28 09:58:37;;;;;;;35.22;24.15;;;16.50;96.50;;;;;;5034797;28;20474;-77
2022/03/28 10:01:14;;;;;;;32.97;23.48;;;16.60;96.20;;;;;;5030363;28;20206;-77
2022/03/28 10:03:42;;;;;;;31.63;24.20;;;16.80;96.30;;;;;;5034306;28;20194;-77
2022/03/28 10:06:11;;;;;;;34.53;26.20;;;17.00;95.60;;;;;;5051265;28;20210;-77
2022/03/28 10:08:40;;;;;;;35.42;25.55;;;17.00;95.30;;;;;;5045012;28;20590;-77
2022/03/28 10:11:26;;;;;;;37.67;28.20;;;16.40;96.30;;;;;;5048293;28;20525;-78
2022/03/28 10:13:55;;;;;;;53.97;39.10;;;16.40;96.60;;;;;;5031495;28;20198;-77
2022/03/28 10:16:24;;;;;;;37.80;25.83;;;16.90;96.60;;;;;;5036259;28;20202;-77
2022/03/28 10:18:52;;;;;;;70.07;50.45;;;16.90;95.70;;;;;;5031127;28;20206;-78
2022/03/28 10:21:24;;;;;;;41.25;30.95;;;17.40;96.00;;;;;;5048281;28;20221;-78
2022/03/28 10:24:02;;;;;;;36.05;24.00;;;17.60;95.40;;;;;;5049701;28;20202;-77
2022/03/28 10:26:33;;;;;;;44.28;33.33;;;17.60;95.20;;;;;;5046664;28;20210;-77
2022/03/28 10:29:05;;;;;;;37.30;26.63;;;17.70;94.90;;;;;;5047796;28;20190;-80
2022/03/28 10:31:34;;;;;;;40.30;28.90;;;17.20;94.30;;;;;;5047189;28;20715;-79
2022/03/28 10:34:03;;;;;;;41.80;28.92;;;17.00;95.70;;;;;;5046972;28;20198;-80
2022/03/28 10:36:32;;;;;;;44.20;30.10;;;17.30;95.70;;;;;;5046386;28;20194;-80
2022/03/28 10:39:33;;;;;;;40.22;28.60;;;17.60;95.40;;;;;;5046266;28;20214;-79
2022/03/28 10:42:08;;;;;;;36.58;26.38;;;17.90;95.10;;;;;;5040876;28;20728;-79
2022/03/28 10:45:00;;;;;;;36.38;26.67;;;18.10;95.00;;;;;;5047373;28;20197;-79
2022/03/28 10:47:44;;;;;;;40.50;28.40;;;18.20;93.70;;;;;;5047998;28;20653;-79
2022/03/28 10:50:12;;;;;;;38.97;27.13;;;18.30;93.80;;;;;;5048314;28;20195;-79
2022/03/28 10:53:03;;;;;;;38.13;26.80;;;18.00;94.60;;;;;;5047926;28;20230;-79
2022/03/28 10:55:37;;;;;;;42.67;27.65;;;17.90;94.80;;;;;;5044992;28;20202;-76
2022/03/28 10:58:16;;;;;;;38.17;25.48;;;18.00;93.90;;;;;;5046919;28;20214;-76
2022/03/28 11:01:21;;;;;;;34.17;25.77;;;18.30;93.10;;;;;;5031501;28;20198;-76
2022/03/28 11:03:54;;;;;;;40.55;25.65;;;18.30;92.40;;;;;;5011032;28;20206;-76
2022/03/28 11:06:37;;;;;;;33.45;26.00;;;18.20;92.40;;;;;;5028401;28;20198;-75
2022/03/28 11:09:04;;;;;;;36.17;25.83;;;18.50;91.80;;;;;;5041239;28;20209;-77
2022/03/28 11:14:46;;;;;;;38.00;25.52;;;18.60;91.50;;;;;;5089917;28;20555;-77
2022/03/28 11:17:16;;;;;;;36.60;25.80;;;18.90;91.00;;;;;;5089877;28;20199;-77
2022/03/28 11:19:57;;;;;;;38.03;25.35;;;18.70;91.40;;;;;;5099320;28;20208;-77
2022/03/28 11:22:49;;;;;;;34.72;23.92;;;19.00;90.80;;;;;;5091365;28;20232;-77
2022/03/28 11:25:42;;;;;;;37.92;25.50;;;19.00;90.50;;;;;;5103726;28;20212;-78
2022/03/28 11:28:13;;;;;;;35.20;24.60;;;19.00;91.10;;;;;;5096699;28;20192;-79
2022/03/28 11:30:53;;;;;;;35.53;24.70;;;19.40;90.60;;;;;;5095083;28;20200;-80
2022/03/28 11:33:22;;;;;;;33.95;25.17;;;19.40;90.00;;;;;;5106563;28;20208;-79
2022/03/28 11:35:55;;;;;;;32.60;23.88;;;19.60;88.90;;;;;;5101911;28;20655;-79
2022/03/28 11:38:39;;;;;;;37.90;24.60;;;19.30;89.00;;;;;;5087198;28;20211;-76
2022/03/28 11:41:12;;;;;;;30.88;23.80;;;19.30;87.80;;;;;;5104898;28;20563;-76
2022/03/28 11:43:43;;;;;;;31.90;23.63;;;19.40;88.80;;;;;;5118785;27;20192;-77
2022/03/28 11:46:17;;;;;;;29.45;22.75;;;19.40;86.80;;;;;;5093771;28;20201;-76
2022/03/28 11:49:04;;;;;;;29.35;22.75;;;19.40;85.70;;;;;;5089448;28;20200;-76
2022/03/28 11:51:34;;;;;;;34.47;24.08;;;19.10;88.80;;;;;;5104060;28;20228;-76
2022/03/28 11:54:05;;;;;;;28.52;22.10;;;19.00;86.70;;;;;;5089369;28;20225;-76
2022/03/28 11:56:36;;;;;;;31.25;22.50;;;18.90;87.30;;;;;;5090547;28;20201;-76
2022/03/28 11:59:06;;;;;;;30.67;21.92;;;19.00;87.10;;;;;;5093889;28;20674;-76
2022/03/28 12:01:35;;;;;;;27.75;21.38;;;19.20;86.30;;;;;;5096166;28;20247;-76
2022/03/28 12:04:04;;;;;;;32.60;23.88;;;19.60;86.30;;;;;;5099858;28;20189;-76
2022/03/28 12:06:36;;;;;;;32.58;24.30;;;19.70;83.70;;;;;;5102174;28;20208;-76
2022/03/28 12:09:06;;;;;;;31.52;22.85;;;19.20;84.50;;;;;;5096717;28;20204;-76
2022/03/28 12:11:36;;;;;;;29.85;21.73;;;19.50;83.80;;;;;;5100451;28;20217;-76
2022/03/28 12:14:03;;;;;;;32.22;23.15;;;20.20;82.40;;;;;;5105037;28;20227;-76
2022/03/28 12:16:31;;;;;;;29.40;22.73;;;19.60;81.90;;;;;;5105881;28;20200;-76
2022/03/28 12:19:01;;;;;;;33.25;23.80;;;20.40;81.00;;;;;;5103596;28;20197;-76
2022/03/28 12:21:29;;;;;;;30.05;23.00;;;20.50;81.60;;;;;;5106032;28;20220;-76
2022/03/28 12:23:57;;;;;;;32.78;23.83;;;20.90;78.70;;;;;;5095407;28;20200;-76
2022/03/28 12:26:24;;;;;;;34.97;25.83;;;20.90;78.60;;;;;;5088442;28;20205;-76
2022/03/28 12:28:53;;;;;;;32.28;25.88;;;20.80;78.80;;;;;;5088110;28;20193;-76
2022/03/28 12:31:27;;;;;;;33.33;24.77;;;20.80;79.40;;;;;;5083448;28;20696;-76
2022/03/28 12:33:54;;;;;;;33.53;25.33;;;20.80;79.60;;;;;;5077131;28;20202;-75
2022/03/28 12:36:28;;;;;;;33.65;25.58;;;21.10;78.90;;;;;;5077432;28;20733;-75
2022/03/28 12:38:57;;;;;;;35.13;25.15;;;20.70;78.00;;;;;;5079624;28;20201;-77
2022/03/28 12:41:30;;;;;;;39.05;26.33;;;21.00;76.40;;;;;;5087381;28;20223;-77
2022/03/28 12:43:59;;;;;;;32.20;23.83;;;21.60;77.10;;;;;;5086360;28;20201;-77
2022/03/28 12:46:28;;;;;;;39.90;26.25;;;21.30;77.20;;;;;;5080998;28;20201;-76
2022/03/28 12:48:57;;;;;;;28.95;23.52;;;22.00;77.20;;;;;;5077147;28;20193;-77